createdAt,value
2023-01-18T00:02:32.755Z,18.00
2023-01-18T00:05:05.117Z,20.40
2023-01-18T00:07:36.236Z,20.80
2023-01-18T00:10:08.358Z,25.20
2023-01-18T00:12:39.882Z,22.30
2023-01-18T00:15:13.716Z,28.50
2023-01-18T00:17:55.267Z,24.80
2023-01-18T00:20:28.321Z,16.20
2023-01-18T00:23:02.168Z,16.00
2023-01-18T00:25:33.398Z,12.00
2023-01-18T00:28:04.432Z,10.60
2023-01-18T00:30:38.108Z,10.30
2023-01-18T00:33:09.849Z,9.50
2023-01-18T00:35:43.626Z,13.70
2023-01-18T00:38:14.419Z,13.60
2023-01-18T00:40:45.469Z,16.50
2023-01-18T00:43:34.418Z,15.90
2023-01-18T00:46:11.950Z,29.70
2023-01-18T00:48:45.236Z,31.20
2023-01-18T00:51:18.312Z,24.20
2023-01-18T00:53:51.332Z,36.50
2023-01-18T00:56:24.123Z,42.30
2023-01-18T00:58:58.196Z,32.40
2023-01-18T01:01:57.602Z,25.30
2023-01-18T01:04:47.742Z,22.80
2023-01-18T01:07:19.967Z,16.70
2023-01-18T01:09:53.051Z,20.60
2023-01-18T01:12:42.145Z,17.50
2023-01-18T01:15:30.679Z,22.00
2023-01-18T01:18:19.014Z,24.30
2023-01-18T01:21:10.636Z,40.10
2023-01-18T01:24:00.570Z,41.10
2023-01-18T01:26:31.897Z,27.00
2023-01-18T01:29:01.612Z,22.60
2023-01-18T01:31:34.155Z,23.10
2023-01-18T01:34:05.052Z,20.70
2023-01-18T01:36:38.373Z,24.00
2023-01-18T01:39:11.461Z,22.50
2023-01-18T01:41:43.077Z,23.50
2023-01-18T01:44:24.816Z,23.50
2023-01-18T01:46:57.150Z,21.80
2023-01-18T01:49:37.060Z,20.80
2023-01-18T01:52:12.570Z,19.80
2023-01-18T01:54:56.988Z,21.80
2023-01-18T01:57:32.338Z,19.50
2023-01-18T02:00:07.658Z,19.00
2023-01-18T02:03:11.403Z,24.90
2023-01-18T02:05:44.593Z,18.60
2023-01-18T02:08:23.014Z,21.20
2023-01-18T02:10:54.969Z,22.30
2023-01-18T02:13:26.119Z,21.00
2023-01-18T02:15:55.349Z,22.10
2023-01-18T02:18:52.825Z,25.90
2023-01-18T02:24:42.256Z,19.70
2023-01-18T02:27:44.001Z,21.80
2023-01-18T02:30:32.583Z,25.10
2023-01-18T02:33:11.757Z,19.10
2023-01-18T02:35:54.056Z,24.10
2023-01-18T02:38:46.586Z,21.60
2023-01-18T02:41:58.102Z,23.80
2023-01-18T02:44:57.070Z,23.60
2023-01-18T02:47:30.302Z,22.80
2023-01-18T02:50:02.879Z,25.30
2023-01-18T02:52:42.745Z,20.20
2023-01-18T02:55:24.983Z,18.20
2023-01-18T02:58:01.678Z,20.10
2023-01-18T03:00:38.345Z,17.70
2023-01-18T03:03:11.583Z,19.80
2023-01-18T03:05:45.183Z,23.40
2023-01-18T03:08:37.631Z,21.30
2023-01-18T03:11:17.000Z,22.20
2023-01-18T03:13:58.916Z,21.80
2023-01-18T03:16:59.574Z,24.80
2023-01-18T03:20:04.229Z,33.10
2023-01-18T03:22:56.788Z,28.20
2023-01-18T03:25:33.323Z,26.80
2023-01-18T03:28:59.996Z,29.70
2023-01-18T03:32:00.910Z,27.90
2023-01-18T03:35:02.166Z,35.80
2023-01-18T03:37:38.107Z,29.70
2023-01-18T03:40:11.497Z,31.30
2023-01-18T03:43:04.449Z,31.20
2023-01-18T03:45:35.784Z,26.90
2023-01-18T03:48:08.558Z,33.30
2023-01-18T03:50:54.045Z,39.00
2023-01-18T03:53:39.529Z,43.40
2023-01-18T03:56:34.519Z,33.20
2023-01-18T03:59:07.308Z,28.00
2023-01-18T04:02:03.145Z,25.30
2023-01-18T04:07:07.526Z,28.50
2023-01-18T04:09:37.257Z,20.40
2023-01-18T04:12:08.498Z,21.90
2023-01-18T04:14:39.765Z,21.70
2023-01-18T04:17:10.834Z,21.20
2023-01-18T04:19:41.229Z,21.50
2023-01-18T04:22:13.249Z,23.30
2023-01-18T04:24:44.271Z,22.00
2023-01-18T04:27:14.864Z,21.20
2023-01-18T04:29:45.327Z,19.40
2023-01-18T04:32:14.457Z,21.90
2023-01-18T04:34:44.237Z,23.00
2023-01-18T04:37:17.517Z,25.70
2023-01-18T04:39:50.094Z,24.20
2023-01-18T04:42:19.046Z,27.40
2023-01-18T04:44:51.707Z,28.60
2023-01-18T04:47:21.997Z,28.30
2023-01-18T04:49:53.157Z,26.90
2023-01-18T04:52:22.847Z,25.00
2023-01-18T04:54:53.337Z,28.80
2023-01-18T04:57:25.118Z,25.90
2023-01-18T04:59:55.521Z,24.70
2023-01-18T05:02:29.135Z,24.30
2023-01-18T05:05:02.887Z,24.20
2023-01-18T05:10:09.381Z,26.70
2023-01-18T05:12:41.347Z,25.40
2023-01-18T05:15:15.383Z,26.10
2023-01-18T05:17:46.888Z,33.10
2023-01-18T05:20:17.857Z,33.10
2023-01-18T05:22:51.206Z,29.20
2023-01-18T05:25:21.764Z,33.60
2023-01-18T05:27:51.792Z,45.10
2023-01-18T05:30:24.947Z,33.00
2023-01-18T05:32:54.987Z,40.60
2023-01-18T05:35:28.950Z,35.70
2023-01-18T05:38:00.557Z,54.30
2023-01-18T05:40:31.611Z,51.30
2023-01-18T05:43:05.115Z,50.60
2023-01-18T05:45:36.593Z,45.30
2023-01-18T05:48:10.332Z,40.60
2023-01-18T05:50:43.967Z,40.90
2023-01-18T05:53:21.872Z,62.10
2023-01-18T05:56:00.614Z,36.10
2023-01-18T05:58:30.462Z,44.10
2023-01-18T06:01:28.958Z,57.10
2023-01-18T06:03:58.800Z,44.20
2023-01-18T06:06:30.287Z,50.30
2023-01-18T06:09:00.708Z,68.40
2023-01-18T06:11:32.429Z,74.30
2023-01-18T06:14:02.476Z,59.20
2023-01-18T06:16:33.058Z,75.60
2023-01-18T06:19:04.869Z,51.90
2023-01-18T06:21:35.920Z,46.50
2023-01-18T06:24:08.052Z,63.30
2023-01-18T06:26:38.560Z,46.80
2023-01-18T06:29:07.860Z,46.60
2023-01-18T06:31:36.823Z,51.70
2023-01-18T06:34:09.777Z,46.40
2023-01-18T06:36:43.955Z,54.10
2023-01-18T06:39:15.662Z,84.50
2023-01-18T06:41:45.499Z,55.40
2023-01-18T06:44:19.422Z,57.00
2023-01-18T06:46:52.619Z,42.10
2023-01-18T06:49:22.162Z,48.70
2023-01-18T06:51:51.328Z,60.30
2023-01-18T06:54:23.554Z,41.20
2023-01-18T06:56:55.635Z,35.40
2023-01-18T06:59:29.257Z,70.00
2023-01-18T07:01:59.889Z,51.20
2023-01-18T07:04:30.575Z,38.30
2023-01-18T07:06:59.792Z,91.70
2023-01-18T07:09:31.041Z,67.40
2023-01-18T07:12:01.528Z,46.80
2023-01-18T07:14:33.819Z,57.80
2023-01-18T07:17:02.962Z,63.50
2023-01-18T07:19:33.654Z,56.30
2023-01-18T07:22:04.800Z,49.30
2023-01-18T07:24:38.066Z,52.80
2023-01-18T07:27:09.910Z,46.40
2023-01-18T07:29:39.818Z,59.50
2023-01-18T07:32:11.322Z,48.10
2023-01-18T07:34:42.427Z,62.90
2023-01-18T07:37:15.161Z,67.80
2023-01-18T07:39:46.565Z,38.20
2023-01-18T07:42:16.886Z,38.00
2023-01-18T07:44:46.711Z,46.10
2023-01-18T07:47:50.355Z,51.40
2023-01-18T07:50:43.152Z,63.50
2023-01-18T07:53:36.327Z,32.20
2023-01-18T07:56:13.325Z,28.90
2023-01-18T07:58:50.012Z,41.80
2023-01-18T08:05:47.755Z,43.80
2023-01-18T08:08:20.470Z,28.20
2023-01-18T08:11:01.094Z,30.90
2023-01-18T08:13:35.350Z,34.10
2023-01-18T08:16:10.960Z,27.60
2023-01-18T08:19:03.678Z,25.00
2023-01-18T08:21:35.832Z,31.40
2023-01-18T08:24:09.158Z,34.00
2023-01-18T08:26:41.869Z,31.80
2023-01-18T08:29:15.334Z,30.40
2023-01-18T08:31:47.495Z,29.30
2023-01-18T08:34:19.411Z,28.30
2023-01-18T08:36:53.065Z,30.80
2023-01-18T08:41:54.587Z,29.70
2023-01-18T08:44:26.626Z,29.70
2023-01-18T08:46:56.395Z,30.10
2023-01-18T08:49:36.757Z,33.10
2023-01-18T08:52:10.422Z,33.00
2023-01-18T08:54:43.163Z,30.30
2023-01-18T09:21:48.747Z,30.00
2023-01-18T09:25:14.988Z,32.20
2023-01-18T09:27:48.613Z,29.10
2023-01-18T09:30:19.782Z,26.70
2023-01-18T09:32:52.965Z,28.20
2023-01-18T09:35:24.231Z,32.10
2023-01-18T09:37:55.897Z,26.10
2023-01-18T09:40:45.795Z,25.10
2023-01-18T09:43:22.220Z,26.20
2023-01-18T09:45:55.419Z,26.10
2023-01-18T09:48:53.589Z,24.50
2023-01-18T09:51:31.343Z,22.90
2023-01-18T09:54:29.692Z,24.60
2023-01-18T09:57:19.717Z,26.60
2023-01-18T10:00:02.236Z,25.70
2023-01-18T10:02:40.720Z,24.60
2023-01-18T10:05:18.469Z,24.30
2023-01-18T10:08:17.071Z,26.80
2023-01-18T10:11:36.279Z,21.80
2023-01-18T10:14:26.044Z,26.60
2023-01-18T10:17:03.647Z,27.10
2023-01-18T10:19:34.529Z,29.80
2023-01-18T10:22:19.538Z,31.10
2023-01-18T10:25:14.963Z,31.00
2023-01-18T10:28:24.422Z,33.90
2023-01-18T10:31:10.778Z,36.60
2023-01-18T10:33:43.469Z,32.80
2023-01-18T10:36:27.361Z,29.00
2023-01-18T10:38:57.071Z,30.90
2023-01-18T10:41:34.400Z,22.90
2023-01-18T10:44:05.032Z,26.10
2023-01-18T10:46:34.452Z,32.30
2023-01-18T10:49:05.067Z,26.00
2023-01-18T10:51:38.092Z,30.70
2023-01-18T10:54:25.933Z,30.50
2023-01-18T10:57:05.147Z,24.60
2023-01-18T10:59:40.397Z,27.70
2023-01-18T11:02:24.198Z,41.00
2023-01-18T11:05:22.370Z,25.20
2023-01-18T11:08:33.237Z,29.50
2023-01-18T11:11:13.220Z,33.40
2023-01-18T11:13:47.221Z,36.30
2023-01-18T11:16:57.411Z,26.70
2023-01-18T11:19:27.898Z,30.20
2023-01-18T11:21:59.307Z,27.60
2023-01-18T11:24:47.358Z,25.00
2023-01-18T11:28:00.191Z,23.00
2023-01-18T11:31:13.866Z,21.30
2023-01-18T11:34:00.118Z,31.00
2023-01-18T11:40:11.842Z,24.70
2023-01-18T11:43:29.643Z,25.30
2023-01-18T11:46:52.566Z,28.60
2023-01-18T11:50:21.064Z,22.70
2023-01-18T11:53:35.555Z,23.60
2023-01-18T11:56:29.389Z,26.50
2023-01-18T11:59:03.802Z,27.00
2023-01-18T12:02:20.434Z,31.50
2023-01-18T12:05:29.193Z,33.80
2023-01-18T12:22:07.671Z,32.60
2023-01-18T12:25:27.314Z,37.40
2023-01-18T12:32:11.441Z,38.50
2023-01-18T12:35:24.180Z,34.30
2023-01-18T12:38:35.909Z,44.60
2023-01-18T12:41:40.161Z,31.80
2023-01-18T12:45:09.966Z,25.30
2023-01-18T12:48:57.412Z,33.80
2023-01-18T12:53:06.977Z,31.60
2023-01-18T12:55:57.982Z,30.40
2023-01-18T12:58:58.996Z,26.30
2023-01-18T13:02:04.738Z,27.20
2023-01-18T13:04:50.220Z,27.00
2023-01-18T13:11:07.964Z,27.60
2023-01-18T13:14:39.603Z,31.20
2023-01-18T13:17:28.132Z,28.80
2023-01-18T13:20:07.620Z,25.20
2023-01-18T13:23:15.524Z,23.30
2023-01-18T13:26:52.625Z,22.40
2023-01-18T13:29:52.985Z,23.20
2023-01-18T13:33:12.191Z,30.70
2023-01-18T13:53:25.030Z,24.80
2023-01-18T14:03:41.257Z,23.80
2023-01-18T14:23:25.209Z,30.90
2023-01-18T14:31:01.056Z,24.50
2023-01-18T14:35:09.627Z,23.60
2023-01-18T14:39:06.232Z,19.70
2023-01-18T14:47:22.783Z,17.60
2023-01-18T14:50:34.777Z,22.40
2023-01-18T15:50:03.887Z,21.70
2023-01-18T18:32:59.183Z,15.90
